createdAt,value
2023-01-29T00:01:51.966Z,12.45
2023-01-29T00:04:18.825Z,13.20
2023-01-29T00:06:45.469Z,13.48
2023-01-29T00:09:13.446Z,13.23
2023-01-29T00:11:40.337Z,12.65
2023-01-29T00:14:07.046Z,13.57
2023-01-29T00:16:33.706Z,13.85
2023-01-29T00:19:01.947Z,13.75
2023-01-29T00:21:31.006Z,13.23
2023-01-29T00:23:58.655Z,14.80
2023-01-29T00:26:25.975Z,13.30
2023-01-29T00:28:52.584Z,13.52
2023-01-29T00:31:24.342Z,13.63
2023-01-29T00:33:51.770Z,14.07
2023-01-29T00:36:20.316Z,12.70
2023-01-29T00:38:54.557Z,13.57
2023-01-29T00:41:40.957Z,12.98
2023-01-29T00:44:26.547Z,12.50
2023-01-29T00:46:53.315Z,12.68
2023-01-29T00:49:20.395Z,12.98
2023-01-29T00:52:09.940Z,12.07
2023-01-29T00:54:37.175Z,12.07
2023-01-29T00:57:04.540Z,12.88
2023-01-29T00:59:31.330Z,11.65
2023-01-29T01:02:16.980Z,12.02
2023-01-29T01:04:43.675Z,12.43
2023-01-29T01:09:55.875Z,11.95
2023-01-29T01:12:22.967Z,11.73
2023-01-29T01:14:50.063Z,10.35
2023-01-29T01:17:17.218Z,10.23
2023-01-29T01:19:44.208Z,11.43
2023-01-29T01:22:11.164Z,10.82
2023-01-29T01:24:38.353Z,10.82
2023-01-29T01:27:05.255Z,11.00
2023-01-29T01:29:32.691Z,9.65
2023-01-29T01:31:59.603Z,10.70
2023-01-29T01:34:29.586Z,10.52
2023-01-29T01:36:56.606Z,10.93
2023-01-29T01:39:24.589Z,10.18
2023-01-29T01:41:53.597Z,10.50
2023-01-29T01:44:51.503Z,10.63
2023-01-29T01:47:31.490Z,11.32
2023-01-29T01:50:02.880Z,10.88
2023-01-29T01:52:31.684Z,9.98
2023-01-29T01:54:59.574Z,10.88
2023-01-29T01:57:27.832Z,11.40
2023-01-29T02:00:03.868Z,11.27
2023-01-29T02:02:49.203Z,10.40
2023-01-29T02:05:34.576Z,10.15
2023-01-29T02:08:19.769Z,10.90
2023-01-29T02:10:48.818Z,10.68
2023-01-29T02:13:17.769Z,10.07
2023-01-29T02:15:48.960Z,10.95
2023-01-29T02:18:21.403Z,10.37
2023-01-29T02:21:03.474Z,10.85
2023-01-29T02:23:50.317Z,9.70
2023-01-29T02:26:33.140Z,10.45
2023-01-29T02:29:25.107Z,10.63
2023-01-29T02:32:09.361Z,10.57
2023-01-29T02:35:05.279Z,10.30
2023-01-29T02:37:42.434Z,10.50
2023-01-29T02:40:30.452Z,11.55
2023-01-29T02:43:24.327Z,11.93
2023-01-29T02:46:16.879Z,11.18
2023-01-29T02:48:54.501Z,11.45
2023-01-29T02:52:03.437Z,10.85
2023-01-29T02:55:02.979Z,11.13
2023-01-29T02:57:35.107Z,11.32
2023-01-29T03:02:38.372Z,11.30
2023-01-29T03:05:12.651Z,11.50
2023-01-29T03:07:46.500Z,11.73
2023-01-29T03:10:21.685Z,11.93
2023-01-29T03:12:59.604Z,12.13
2023-01-29T03:15:38.592Z,12.07
2023-01-29T03:18:09.631Z,12.20
2023-01-29T03:20:47.940Z,12.33
2023-01-29T03:23:24.023Z,12.80
2023-01-29T03:26:13.390Z,12.32
2023-01-29T03:29:01.862Z,13.85
2023-01-29T03:31:48.229Z,12.90
2023-01-29T03:34:28.419Z,13.20
2023-01-29T03:36:59.996Z,13.27
2023-01-29T03:39:29.593Z,12.70
2023-01-29T03:42:04.933Z,13.25
2023-01-29T03:44:53.689Z,12.77
2023-01-29T03:47:29.558Z,13.18
2023-01-29T03:50:08.105Z,13.95
2023-01-29T03:52:48.888Z,13.98
2023-01-29T03:55:18.508Z,14.40
2023-01-29T03:57:51.268Z,14.63
2023-01-29T04:00:23.293Z,15.07
2023-01-29T04:05:28.012Z,15.93
2023-01-29T04:08:01.484Z,16.23
2023-01-29T04:10:29.939Z,15.63
2023-01-29T04:13:01.545Z,16.05
2023-01-29T04:15:31.919Z,16.10
2023-01-29T04:17:58.766Z,17.13
2023-01-29T04:20:25.682Z,17.08
2023-01-29T04:22:53.035Z,16.05
2023-01-29T04:25:28.834Z,15.88
2023-01-29T04:28:08.600Z,15.60
2023-01-29T04:30:55.714Z,16.27
2023-01-29T04:33:35.886Z,16.20
2023-01-29T04:36:17.496Z,16.52
2023-01-29T04:38:50.145Z,15.98
2023-01-29T04:41:22.275Z,16.33
2023-01-29T04:44:11.078Z,15.93
2023-01-29T04:46:49.583Z,15.57
2023-01-29T04:49:34.467Z,15.23
2023-01-29T04:52:20.403Z,15.35
2023-01-29T04:55:03.139Z,15.13
2023-01-29T04:58:03.408Z,16.10
2023-01-29T05:00:49.250Z,16.15
2023-01-29T05:03:16.849Z,15.07
2023-01-29T05:05:47.948Z,15.40
2023-01-29T05:08:22.836Z,14.93
2023-01-29T05:10:51.929Z,16.05
2023-01-29T05:13:20.932Z,15.43
2023-01-29T05:15:52.916Z,15.85
2023-01-29T05:20:47.852Z,14.82
2023-01-29T05:23:19.395Z,14.55
2023-01-29T05:25:47.211Z,14.73
2023-01-29T05:28:16.323Z,16.02
2023-01-29T05:30:45.714Z,14.27
2023-01-29T05:33:21.419Z,15.35
2023-01-29T05:35:48.663Z,14.13
2023-01-29T05:38:16.327Z,15.02
2023-01-29T05:40:43.399Z,14.18
2023-01-29T05:43:22.235Z,14.13
2023-01-29T05:46:00.383Z,14.65
2023-01-29T05:48:28.954Z,15.35
2023-01-29T05:51:01.093Z,14.43
2023-01-29T05:55:57.227Z,13.98
2023-01-29T05:58:23.960Z,15.02
2023-01-29T06:00:50.638Z,13.90
2023-01-29T06:03:17.292Z,14.68
2023-01-29T06:05:44.162Z,14.35
2023-01-29T06:08:10.832Z,14.85
2023-01-29T06:10:37.507Z,14.85
2023-01-29T06:13:04.227Z,14.57
2023-01-29T06:15:30.907Z,16.27
2023-01-29T06:17:57.849Z,15.50
2023-01-29T06:20:25.178Z,15.25
2023-01-29T06:22:51.860Z,14.45
2023-01-29T06:25:18.539Z,14.98
2023-01-29T06:27:45.278Z,15.50
2023-01-29T06:30:12.432Z,16.48
2023-01-29T06:32:39.025Z,15.30
2023-01-29T06:35:06.144Z,15.05
2023-01-29T06:37:32.748Z,16.20
2023-01-29T06:39:59.393Z,15.13
2023-01-29T06:42:28.022Z,15.35
2023-01-29T06:44:57.912Z,15.00
2023-01-29T06:47:25.081Z,15.00
2023-01-29T06:49:52.180Z,14.63
2023-01-29T06:52:18.849Z,15.30
2023-01-29T06:54:45.563Z,14.77
2023-01-29T06:57:12.223Z,15.55
2023-01-29T06:59:38.823Z,14.82
2023-01-29T07:02:05.595Z,14.80
2023-01-29T07:04:32.387Z,15.05
2023-01-29T07:07:01.881Z,16.73
2023-01-29T07:09:28.635Z,14.30
2023-01-29T07:11:55.307Z,14.85
2023-01-29T07:14:21.899Z,15.85
2023-01-29T07:16:48.633Z,15.55
2023-01-29T07:19:15.425Z,14.77
2023-01-29T07:21:42.020Z,15.27
2023-01-29T07:24:08.963Z,15.68
2023-01-29T07:26:35.692Z,16.02
2023-01-29T07:29:04.384Z,15.13
2023-01-29T07:31:31.270Z,15.30
2023-01-29T07:33:58.107Z,16.55
2023-01-29T07:36:24.906Z,14.95
2023-01-29T07:38:51.924Z,14.55
2023-01-29T07:41:18.778Z,15.93
2023-01-29T07:43:45.458Z,15.90
2023-01-29T07:46:12.195Z,15.30
2023-01-29T07:48:38.831Z,15.57
2023-01-29T07:51:05.878Z,16.10
2023-01-29T07:53:32.774Z,14.60
2023-01-29T07:55:59.458Z,15.38
2023-01-29T07:58:26.153Z,15.07
2023-01-29T08:00:52.856Z,15.13
2023-01-29T08:03:20.718Z,14.50
2023-01-29T08:05:47.684Z,14.32
2023-01-29T08:08:14.668Z,15.45
2023-01-29T08:10:41.865Z,14.60
2023-01-29T08:13:09.560Z,14.27
2023-01-29T08:15:38.775Z,14.77
2023-01-29T08:18:06.722Z,15.05
2023-01-29T08:20:33.518Z,13.68
2023-01-29T08:23:01.891Z,14.25
2023-01-29T08:25:29.731Z,13.43
2023-01-29T08:27:57.834Z,14.25
2023-01-29T08:30:26.004Z,13.68
2023-01-29T08:32:52.823Z,14.68
2023-01-29T08:35:20.036Z,14.43
2023-01-29T08:37:59.826Z,13.95
2023-01-29T08:40:31.764Z,14.05
2023-01-29T08:43:04.136Z,14.23
2023-01-29T08:45:35.073Z,14.43
2023-01-29T08:48:02.505Z,13.93
2023-01-29T08:50:30.721Z,15.18
2023-01-29T08:52:59.025Z,14.10
2023-01-29T08:55:26.505Z,13.55
2023-01-29T08:57:53.215Z,13.85
2023-01-29T09:00:20.311Z,14.52
2023-01-29T09:02:47.044Z,13.68
2023-01-29T09:05:13.816Z,13.90
2023-01-29T09:07:40.488Z,13.77
2023-01-29T09:10:08.064Z,13.95
2023-01-29T09:12:34.689Z,13.38
2023-01-29T09:15:01.304Z,13.68
2023-01-29T09:17:27.984Z,14.77
2023-01-29T09:19:54.675Z,13.82
2023-01-29T09:22:21.284Z,12.80
2023-01-29T09:24:47.947Z,14.73
2023-01-29T09:27:14.609Z,15.18
2023-01-29T09:29:41.280Z,13.70
2023-01-29T09:32:07.961Z,13.50
2023-01-29T09:34:35.301Z,11.95
2023-01-29T09:37:01.975Z,15.05
2023-01-29T09:39:28.647Z,12.80
2023-01-29T09:42:16.671Z,14.55
2023-01-29T09:45:06.776Z,14.27
2023-01-29T09:47:36.428Z,13.05
2023-01-29T09:50:18.424Z,13.70
2023-01-29T09:53:10.196Z,14.13
2023-01-29T09:55:46.248Z,12.88
2023-01-29T09:58:24.827Z,14.13
2023-01-29T10:01:07.090Z,14.13
2023-01-29T10:03:59.704Z,14.23
2023-01-29T10:06:35.639Z,14.60
2023-01-29T10:09:32.140Z,14.10
2023-01-29T10:12:11.724Z,15.43
2023-01-29T10:14:58.041Z,13.50
2023-01-29T10:17:56.715Z,14.00
2023-01-29T10:21:08.198Z,13.63
2023-01-29T10:23:38.584Z,15.00
2023-01-29T10:26:05.203Z,16.67
2023-01-29T10:28:38.095Z,15.60
2023-01-29T10:31:09.578Z,15.70
2023-01-29T10:33:49.658Z,15.73
2023-01-29T10:36:38.487Z,15.20
2023-01-29T10:39:05.155Z,15.27
2023-01-29T10:41:45.694Z,13.90
2023-01-29T10:44:35.825Z,15.32
2023-01-29T10:47:20.872Z,16.02
2023-01-29T10:50:19.522Z,15.13
2023-01-29T10:53:10.787Z,16.23
2023-01-29T10:55:53.354Z,15.40
2023-01-29T10:58:28.137Z,16.73
2023-01-29T11:00:54.789Z,16.50
2023-01-29T11:03:28.694Z,16.38
2023-01-29T11:06:13.861Z,16.92
2023-01-29T11:08:55.107Z,14.88
2023-01-29T11:11:25.899Z,15.57
2023-01-29T11:14:15.824Z,17.08
2023-01-29T11:16:45.669Z,16.17
2023-01-29T11:19:12.881Z,16.45
2023-01-29T11:21:59.712Z,17.25
2023-01-29T11:24:26.897Z,16.35
2023-01-29T11:26:57.514Z,16.60
2023-01-29T11:29:33.835Z,15.00
2023-01-29T11:32:03.919Z,16.73
2023-01-29T11:34:31.030Z,16.90
2023-01-29T11:37:00.346Z,18.33
2023-01-29T11:39:29.180Z,16.90
2023-01-29T11:41:58.863Z,17.73
2023-01-29T11:44:41.632Z,17.05
2023-01-29T11:47:29.621Z,16.55
2023-01-29T11:50:01.434Z,18.50
2023-01-29T11:52:37.523Z,17.10
2023-01-29T11:55:26.387Z,19.77
2023-01-29T11:58:01.594Z,17.35
2023-01-29T12:00:32.410Z,19.80
2023-01-29T12:03:24.610Z,19.35
2023-01-29T12:05:58.324Z,19.77
2023-01-29T12:08:26.019Z,16.40
2023-01-29T12:11:08.271Z,18.52
2023-01-29T12:13:36.083Z,19.38
2023-01-29T12:16:20.162Z,18.42
2023-01-29T12:18:55.045Z,19.13
2023-01-29T12:21:37.294Z,18.92
2023-01-29T12:26:38.344Z,18.00
2023-01-29T12:29:19.298Z,19.05
2023-01-29T12:31:57.489Z,18.13
2023-01-29T12:34:33.186Z,19.45
2023-01-29T12:37:10.762Z,19.25
2023-01-29T12:39:37.566Z,19.27
2023-01-29T12:42:20.220Z,18.70
2023-01-29T12:44:51.912Z,18.58
2023-01-29T12:47:27.597Z,18.50
2023-01-29T12:49:57.792Z,20.20
2023-01-29T12:52:39.383Z,19.63
2023-01-29T12:55:26.741Z,18.33
2023-01-29T12:58:01.830Z,20.27
2023-01-29T13:00:29.901Z,20.35
2023-01-29T13:03:17.244Z,20.10
2023-01-29T13:05:51.724Z,20.33
2023-01-29T13:08:29.185Z,19.17
2023-01-29T13:10:58.433Z,18.95
2023-01-29T13:13:35.172Z,19.58
2023-01-29T13:16:05.433Z,17.63
2023-01-29T13:18:40.883Z,18.45
2023-01-29T13:21:16.076Z,20.60
2023-01-29T13:23:56.602Z,19.58
2023-01-29T13:26:24.134Z,19.42
2023-01-29T13:28:52.273Z,18.50
2023-01-29T13:31:40.701Z,17.02
2023-01-29T13:34:31.662Z,19.02
2023-01-29T13:37:01.488Z,17.80
2023-01-29T13:39:39.633Z,17.45
2023-01-29T13:42:17.615Z,14.95
2023-01-29T13:44:52.891Z,18.33
2023-01-29T13:47:25.513Z,17.85
2023-01-29T13:50:21.893Z,18.08
2023-01-29T13:52:55.984Z,18.13
2023-01-29T13:55:31.128Z,16.40
2023-01-29T13:58:18.483Z,15.38
2023-01-29T14:00:45.098Z,16.40
2023-01-29T14:03:11.725Z,17.38
2023-01-29T14:05:39.987Z,17.13
2023-01-29T14:08:09.391Z,16.80
2023-01-29T14:10:37.652Z,18.38
2023-01-29T14:13:04.298Z,17.77
2023-01-29T14:15:32.379Z,18.58
2023-01-29T14:18:12.548Z,14.80
2023-01-29T14:20:46.112Z,17.60
2023-01-29T14:23:36.004Z,17.40
2023-01-29T14:26:05.445Z,14.40
2023-01-29T14:28:34.578Z,17.10
2023-01-29T14:31:01.671Z,15.15
2023-01-29T14:33:42.383Z,16.50
2023-01-29T14:36:14.474Z,16.05
2023-01-29T14:38:47.777Z,13.87
2023-01-29T14:41:30.817Z,17.55
2023-01-29T14:44:34.891Z,15.98
2023-01-29T14:47:01.620Z,16.88
2023-01-29T14:49:58.437Z,16.55
2023-01-29T14:52:39.430Z,15.30
2023-01-29T14:55:15.610Z,16.80
2023-01-29T14:57:43.014Z,16.65
2023-01-29T15:00:24.635Z,16.55
2023-01-29T15:03:01.403Z,16.48
2023-01-29T15:05:35.836Z,17.55
2023-01-29T15:08:49.631Z,14.77
2023-01-29T15:11:35.402Z,16.10
2023-01-29T15:14:24.059Z,16.55
2023-01-29T15:17:23.226Z,16.25
2023-01-29T15:19:49.946Z,14.93
2023-01-29T15:22:21.696Z,14.00
2023-01-29T15:25:07.355Z,16.30
2023-01-29T15:27:34.314Z,15.65
2023-01-29T15:30:04.137Z,16.75
2023-01-29T15:32:37.242Z,14.73
2023-01-29T15:35:49.923Z,15.07
2023-01-29T15:38:22.242Z,16.50
2023-01-29T15:40:57.280Z,15.70
2023-01-29T15:43:30.445Z,14.98
2023-01-29T15:46:04.076Z,15.43
2023-01-29T15:48:37.530Z,15.30
2023-01-29T15:51:07.881Z,15.60
2023-01-29T15:53:44.248Z,16.17
2023-01-29T15:56:12.707Z,15.25
2023-01-29T15:58:40.118Z,15.35
2023-01-29T16:01:07.074Z,15.27
2023-01-29T16:03:34.770Z,16.80
2023-01-29T16:06:02.172Z,10.43
2023-01-29T16:08:29.241Z,16.08
2023-01-29T16:10:59.171Z,12.32
2023-01-29T16:13:29.208Z,14.75
2023-01-29T16:16:04.486Z,16.08
2023-01-29T16:18:38.300Z,14.95
2023-01-29T16:21:14.132Z,15.65
2023-01-29T16:23:45.430Z,14.82
2023-01-29T16:26:17.319Z,15.77
2023-01-29T16:31:13.962Z,14.90
2023-01-29T16:33:43.290Z,14.45
2023-01-29T16:36:22.374Z,16.17
2023-01-29T16:38:55.504Z,15.95
2023-01-29T16:41:22.132Z,13.95
2023-01-29T16:43:49.844Z,16.70
2023-01-29T16:46:20.257Z,16.35
2023-01-29T16:48:47.772Z,17.38
2023-01-29T16:51:24.371Z,16.90
2023-01-29T16:54:02.461Z,18.40
2023-01-29T16:56:32.007Z,16.80
2023-01-29T16:58:59.449Z,18.20
2023-01-29T17:01:28.544Z,17.27
2023-01-29T17:04:07.775Z,16.85
2023-01-29T17:06:35.507Z,17.35
2023-01-29T17:09:03.641Z,13.98
2023-01-29T17:11:40.161Z,17.75
2023-01-29T17:14:08.852Z,16.77
2023-01-29T17:16:48.721Z,18.20
2023-01-29T17:19:20.697Z,18.00
2023-01-29T17:24:14.176Z,17.70
2023-01-29T17:26:41.124Z,14.50
2023-01-29T17:29:13.825Z,18.27
2023-01-29T17:31:40.575Z,17.70
2023-01-29T17:34:14.877Z,20.48
2023-01-29T17:36:42.829Z,17.42
2023-01-29T17:39:20.721Z,18.20
2023-01-29T17:41:58.698Z,18.05
2023-01-29T17:44:28.054Z,17.92
2023-01-29T17:46:54.701Z,17.95
2023-01-29T17:49:26.099Z,18.45
2023-01-29T17:51:54.338Z,18.80
2023-01-29T17:54:22.225Z,17.52
2023-01-29T17:56:50.297Z,15.55
2023-01-29T17:59:27.672Z,18.58
2023-01-29T18:01:54.446Z,19.52
2023-01-29T18:04:21.566Z,18.02
2023-01-29T18:06:50.161Z,18.33
2023-01-29T18:09:20.275Z,16.63
2023-01-29T18:11:48.188Z,18.30
2023-01-29T18:14:15.371Z,18.90
2023-01-29T18:16:43.661Z,20.38
2023-01-29T18:19:31.001Z,18.85
2023-01-29T18:21:57.866Z,16.92
2023-01-29T18:24:26.483Z,18.25
2023-01-29T18:26:53.216Z,16.08
2023-01-29T18:29:19.933Z,19.42
2023-01-29T18:31:49.166Z,19.77
2023-01-29T18:34:15.948Z,18.73
2023-01-29T18:36:46.888Z,19.50
2023-01-29T18:39:16.501Z,18.42
2023-01-29T18:41:43.159Z,18.70
2023-01-29T18:44:10.748Z,18.13
2023-01-29T18:46:37.389Z,16.65
2023-01-29T18:49:05.070Z,18.60
2023-01-29T18:51:31.782Z,16.70
2023-01-29T18:53:58.439Z,19.25
2023-01-29T18:56:25.178Z,17.55
2023-01-29T18:58:55.939Z,19.00
2023-01-29T19:01:23.522Z,15.73
2023-01-29T19:03:50.293Z,16.80
2023-01-29T19:06:16.917Z,18.15
2023-01-29T19:08:43.973Z,18.25
2023-01-29T19:11:12.392Z,17.13
2023-01-29T19:13:40.376Z,17.75
2023-01-29T19:16:12.489Z,17.67
2023-01-29T19:18:39.515Z,14.02
2023-01-29T19:21:08.836Z,17.52
2023-01-29T19:23:35.498Z,19.08
2023-01-29T19:26:02.218Z,19.10
2023-01-29T19:28:28.891Z,18.67
2023-01-29T19:30:58.018Z,19.80
2023-01-29T19:33:25.497Z,19.90
2023-01-29T19:35:52.201Z,14.77
2023-01-29T19:38:21.201Z,20.70
2023-01-29T19:40:48.566Z,17.42
2023-01-29T19:43:17.476Z,17.77
2023-01-29T19:45:49.624Z,18.38
2023-01-29T19:48:21.431Z,15.95
2023-01-29T19:51:12.035Z,18.77
2023-01-29T19:53:40.783Z,16.88
2023-01-29T19:56:09.649Z,17.02
2023-01-29T19:58:36.950Z,16.35
2023-01-29T20:01:06.708Z,19.08
2023-01-29T20:03:34.078Z,16.90
2023-01-29T20:06:05.843Z,16.42
2023-01-29T20:08:33.193Z,18.15
2023-01-29T20:10:59.834Z,18.73
2023-01-29T20:13:26.728Z,17.45
2023-01-29T20:15:54.061Z,17.85
2023-01-29T20:18:20.876Z,16.55
2023-01-29T20:20:50.280Z,18.00
2023-01-29T20:23:31.767Z,18.65
2023-01-29T20:26:03.726Z,19.48
2023-01-29T20:28:30.378Z,18.02
2023-01-29T20:30:58.165Z,19.58
2023-01-29T20:33:25.762Z,18.80
2023-01-29T20:35:57.659Z,18.63
2023-01-29T20:38:30.150Z,19.90
2023-01-29T20:41:17.643Z,20.52
2023-01-29T20:43:45.157Z,19.35
2023-01-29T20:46:12.059Z,19.80
2023-01-29T20:48:39.202Z,21.95
2023-01-29T20:51:07.903Z,19.65
2023-01-29T20:53:34.903Z,18.75
2023-01-29T20:56:04.193Z,19.05
2023-01-29T20:58:31.043Z,18.88
2023-01-29T21:00:57.928Z,19.40
2023-01-29T21:03:24.620Z,17.05
2023-01-29T21:05:52.173Z,19.00
2023-01-29T21:08:18.915Z,19.73
2023-01-29T21:10:45.767Z,20.17
2023-01-29T21:13:12.688Z,19.35
2023-01-29T21:15:39.325Z,19.95
2023-01-29T21:18:06.635Z,19.80
2023-01-29T21:20:33.277Z,20.13
2023-01-29T21:22:59.921Z,21.60
2023-01-29T21:25:26.545Z,19.83
2023-01-29T21:27:53.206Z,20.85
2023-01-29T21:30:20.285Z,19.45
2023-01-29T21:32:47.201Z,19.80
2023-01-29T21:35:14.844Z,20.65
2023-01-29T21:37:41.866Z,19.85
2023-01-29T21:40:09.352Z,21.60
2023-01-29T21:42:54.694Z,19.73
2023-01-29T21:45:21.321Z,20.63
2023-01-29T21:47:47.933Z,21.30
2023-01-29T21:50:14.838Z,22.13
2023-01-29T21:52:41.668Z,19.98
2023-01-29T21:55:08.685Z,21.45
2023-01-29T21:57:35.362Z,20.15
2023-01-29T22:00:02.035Z,21.13
2023-01-29T22:02:30.855Z,20.25
2023-01-29T22:05:16.478Z,20.98
2023-01-29T22:07:45.157Z,18.27
2023-01-29T22:10:12.376Z,20.10
2023-01-29T22:12:39.891Z,19.38
2023-01-29T22:15:08.468Z,14.02
2023-01-29T22:17:35.375Z,20.98
2023-01-29T22:20:02.211Z,19.73
2023-01-29T22:22:28.870Z,21.83
2023-01-29T22:24:57.558Z,19.58
2023-01-29T22:27:24.530Z,20.38
2023-01-29T22:29:51.240Z,18.75
2023-01-29T22:32:17.946Z,20.63
2023-01-29T22:34:44.596Z,18.88
2023-01-29T22:37:11.229Z,19.20
2023-01-29T22:39:37.841Z,17.63
2023-01-29T22:42:04.563Z,17.63
2023-01-29T22:44:31.169Z,15.98
2023-01-29T22:46:57.769Z,19.95
2023-01-29T22:49:25.183Z,19.30
2023-01-29T22:52:09.885Z,19.30
2023-01-29T22:54:41.051Z,18.27
2023-01-29T22:57:10.338Z,16.02
2023-01-29T22:59:37.322Z,19.27
2023-01-29T23:02:04.380Z,20.10
2023-01-29T23:04:31.127Z,18.70
2023-01-29T23:06:58.349Z,18.52
2023-01-29T23:09:25.187Z,14.32
2023-01-29T23:11:51.835Z,18.30
2023-01-29T23:14:18.569Z,17.92
2023-01-29T23:16:45.278Z,17.00
2023-01-29T23:19:12.249Z,13.60
2023-01-29T23:21:39.795Z,18.90
2023-01-29T23:24:07.843Z,18.20
2023-01-29T23:26:53.182Z,20.15
2023-01-29T23:29:20.360Z,14.38
2023-01-29T23:31:47.139Z,19.48
2023-01-29T23:34:14.235Z,19.20
2023-01-29T23:36:41.096Z,18.30
2023-01-29T23:39:07.844Z,20.02
2023-01-29T23:41:34.582Z,18.15
2023-01-29T23:44:01.197Z,17.83
2023-01-29T23:46:27.837Z,17.23
2023-01-29T23:48:54.505Z,17.30
2023-01-29T23:51:21.159Z,15.05
2023-01-29T23:53:47.804Z,19.40
2023-01-29T23:56:14.385Z,17.63
2023-01-29T23:58:41.050Z,19.08
